Time;durP1;ratioP1;P1;durP2;ratioP2;P2;SDS_P1;SDS_P2;PMS_P1;PMS_P2;Temp;Humidity;BMP_temperature;BMP_pressure;BME280_temperature;BME280_humidity;BME280_pressure;Samples;Min_cycle;Max_cycle;Signal;HPM_P1;HPM_P2
2022/11/16 00:00:23;;;;;;;89.75;54.15;;;;;;;;;;6198646;28;20038;-74
2022/11/16 00:03:23;;;;;;;99.93;61.63;;;;;;;;;;6197997;28;20025;-74
2022/11/16 00:06:23;;;;;;;101.43;60.83;;;;;;;;;;6197254;28;20113;-74
2022/11/16 00:09:27;;;;;;;97.90;58.53;;;;;;;;;;6198705;28;20028;-74
2022/11/16 00:12:27;;;;;;;110.70;64.13;;;;;;;;;;6197520;28;20433;-75
2022/11/16 00:15:27;;;;;;;109.63;67.85;;;;;;;;;;6197060;28;20080;-75
2022/11/16 00:18:28;;;;;;;103.83;60.50;;;;;;;;;;6196189;28;20069;-75
2022/11/16 00:21:29;;;;;;;94.63;60.90;;;;;;;;;;6179732;28;20041;-74
2022/11/16 00:24:29;;;;;;;99.40;59.72;;;;;;;;;;6197106;28;20478;-74
2022/11/16 00:27:29;;;;;;;97.78;57.47;;;;;;;;;;6196716;28;20137;-75
2022/11/16 00:30:29;;;;;;;94.03;55.30;;;;;;;;;;6197240;28;20018;-75
2022/11/16 00:33:30;;;;;;;96.07;56.50;;;;;;;;;;6196362;28;20033;-75
2022/11/16 00:36:30;;;;;;;86.78;52.75;;;;;;;;;;6197280;28;20034;-74
2022/11/16 00:39:30;;;;;;;94.97;53.53;;;;;;;;;;6179742;28;20021;-75
2022/11/16 00:42:30;;;;;;;91.53;55.63;;;;;;;;;;6197215;28;20030;-75
2022/11/16 00:45:30;;;;;;;94.13;55.28;;;;;;;;;;6196887;28;20022;-75
2022/11/16 00:48:31;;;;;;;96.30;61.23;;;;;;;;;;6197206;28;20473;-75
2022/11/16 00:51:31;;;;;;;94.53;58.03;;;;;;;;;;6196993;28;20011;-74
2022/11/16 00:54:32;;;;;;;101.03;59.70;;;;;;;;;;6196366;28;20421;-74
2022/11/16 00:57:32;;;;;;;107.77;60.30;;;;;;;;;;6196331;28;20039;-75
2022/11/16 01:00:32;;;;;;;89.88;55.05;;;;;;;;;;6197770;28;20022;-75
2022/11/16 01:03:33;;;;;;;96.97;57.87;;;;;;;;;;6196989;28;20041;-75
2022/11/16 01:06:33;;;;;;;91.33;56.23;;;;;;;;;;6196333;28;20514;-75
2022/11/16 01:09:34;;;;;;;95.47;54.67;;;;;;;;;;6196649;28;20268;-75
2022/11/16 01:12:34;;;;;;;92.70;56.70;;;;;;;;;;6196532;28;20023;-75
2022/11/16 01:15:34;;;;;;;102.53;55.47;;;;;;;;;;6195773;28;20364;-75
2022/11/16 01:18:35;;;;;;;103.53;58.03;;;;;;;;;;6197245;28;20018;-75
2022/11/16 01:21:35;;;;;;;94.37;56.93;;;;;;;;;;6195507;28;20022;-75
2022/11/16 01:24:35;;;;;;;103.20;59.53;;;;;;;;;;6194919;28;20022;-75
2022/11/16 01:27:36;;;;;;;93.50;55.83;;;;;;;;;;6196354;28;20050;-75
2022/11/16 01:30:36;;;;;;;100.60;56.80;;;;;;;;;;6197083;28;20142;-75
2022/11/16 01:33:37;;;;;;;97.13;60.60;;;;;;;;;;6196347;28;20015;-75
2022/11/16 01:36:37;;;;;;;114.53;65.68;;;;;;;;;;6196204;28;20084;-75
2022/11/16 01:39:37;;;;;;;99.93;60.10;;;;;;;;;;6195792;28;20030;-75
2022/11/16 01:42:37;;;;;;;91.20;58.45;;;;;;;;;;6195583;28;20026;-75
2022/11/16 01:45:40;;;;;;;94.73;57.77;;;;;;;;;;6195242;28;20015;-74
2022/11/16 01:48:40;;;;;;;92.95;56.50;;;;;;;;;;6200007;28;20106;-74
2022/11/16 01:51:42;;;;;;;93.72;56.70;;;;;;;;;;6199937;28;20018;-74
2022/11/16 01:54:44;;;;;;;104.38;58.13;;;;;;;;;;6182982;28;20014;-75
2022/11/16 01:57:45;;;;;;;90.45;56.88;;;;;;;;;;6183124;28;20030;-75
2022/11/16 02:00:47;;;;;;;95.15;58.33;;;;;;;;;;6194696;28;20034;-74
2022/11/16 02:03:48;;;;;;;94.18;57.15;;;;;;;;;;6200308;28;20019;-74
2022/11/16 02:07:06;;;;;;;106.03;60.38;;;;;;;;;;6199833;28;20066;-74
2022/11/16 02:10:19;;;;;;;95.65;55.83;;;;;;;;;;6194920;28;20017;-75
2022/11/16 02:13:30;;;;;;;91.80;58.88;;;;;;;;;;6200553;28;20054;-74
2022/11/16 02:16:57;;;;;;;94.03;55.45;;;;;;;;;;6198414;28;20054;-74
2022/11/16 02:20:10;;;;;;;89.63;54.30;;;;;;;;;;6183557;28;20026;-75
2022/11/16 02:23:22;;;;;;;92.15;53.13;;;;;;;;;;6200127;28;20518;-75
2022/11/16 02:26:41;;;;;;;93.32;53.35;;;;;;;;;;6200825;28;20467;-75
2022/11/16 02:29:44;;;;;;;91.38;53.03;;;;;;;;;;6195126;28;20045;-75
2022/11/16 02:32:56;;;;;;;84.32;49.22;;;;;;;;;;6199345;28;20077;-75
2022/11/16 02:35:56;;;;;;;;;;;;;;;;;;6197949;28;20490;-75
2022/11/16 02:39:00;;;;;;;90.30;51.72;;;;;;;;;;6197442;28;20350;-75
2022/11/16 02:42:00;;;;;;;82.43;52.40;;;;;;;;;;6182347;28;20034;-74
2022/11/16 02:45:02;;;;;;;92.00;53.42;;;;;;;;;;6197372;28;20037;-74
2022/11/16 02:48:04;;;;;;;98.55;59.53;;;;;;;;;;6199563;28;20482;-75
2022/11/16 02:51:05;;;;;;;90.53;55.22;;;;;;;;;;6197544;28;20418;-75
2022/11/16 02:54:11;;;;;;;97.72;56.75;;;;;;;;;;6198298;28;20022;-74
2022/11/16 02:57:30;;;;;;;92.10;58.92;;;;;;;;;;6197218;28;20019;-75
2022/11/16 03:00:42;;;;;;;103.47;58.47;;;;;;;;;;6198923;28;20022;-75
2022/11/16 03:03:42;;;;;;;;;;;;;;;;;;6199044;28;20109;-74
2022/11/16 03:06:44;;;;;;;107.30;59.70;;;;;;;;;;6198639;28;19917;-74
2022/11/16 03:09:44;;;;;;;;;;;;;;;;;;6198956;28;20042;-75
2022/11/16 03:12:45;;;;;;;100.57;56.05;;;;;;;;;;6198276;28;19910;-75
2022/11/16 03:15:47;;;;;;;110.53;61.83;;;;;;;;;;6198698;28;20026;-75
2022/11/16 03:18:48;;;;;;;94.28;56.65;;;;;;;;;;6181051;28;20351;-74
2022/11/16 03:21:53;;;;;;;100.35;59.47;;;;;;;;;;6197027;28;20150;-74
2022/11/16 03:24:53;;;;;;;110.20;64.68;;;;;;;;;;6194564;28;20077;-75
2022/11/16 03:28:07;;;;;;;96.45;61.45;;;;;;;;;;6180878;28;20036;-75
2022/11/16 03:31:11;;;;;;;90.75;57.40;;;;;;;;;;6197195;28;20018;-75
2022/11/16 03:34:15;;;;;;;97.10;58.05;;;;;;;;;;6194217;28;20022;-75
2022/11/16 03:37:15;;;;;;;88.85;56.22;;;;;;;;;;6197947;28;20029;-74
2022/11/16 03:40:17;;;;;;;86.50;55.45;;;;;;;;;;6198404;28;20397;-74
2022/11/16 03:43:19;;;;;;;86.65;55.58;;;;;;;;;;6181391;28;20018;-74
2022/11/16 03:46:19;;;;;;;;;;;;;;;;;;6198184;28;20368;-74
2022/11/16 03:49:20;;;;;;;93.88;56.33;;;;;;;;;;6197236;28;20463;-75
2022/11/16 03:52:20;;;;;;;91.82;54.05;;;;;;;;;;6197237;28;20014;-75
2022/11/16 03:55:20;;;;;;;126.63;64.13;;;;;;;;;;6180101;28;20026;-75
2022/11/16 03:58:20;;;;;;;106.57;63.17;;;;;;;;;;6179949;28;20109;-75
2022/11/16 04:01:20;;;;;;;106.53;66.88;;;;;;;;;;6198074;28;20365;-75
2022/11/16 04:24:18;;;;;;;109.75;68.65;;;;;;;;;;6195994;28;20478;-75
2022/11/16 04:37:51;;;;;;;121.68;71.85;;;;;;;;;;6195508;28;20030;-75
2022/11/16 04:40:51;;;;;;;129.02;72.65;;;;;;;;;;6195749;28;20034;-74
2022/11/16 04:43:51;;;;;;;128.07;74.07;;;;;;;;;;6196372;28;20026;-75
2022/11/16 04:47:07;;;;;;;115.53;69.00;;;;;;;;;;6196071;28;20014;-75
2022/11/16 04:50:07;;;;;;;122.68;75.38;;;;;;;;;;6194731;28;20055;-75
2022/11/16 04:53:07;;;;;;;124.35;74.05;;;;;;;;;;6197838;28;20478;-74
2022/11/16 04:56:08;;;;;;;122.03;74.70;;;;;;;;;;6198415;28;20476;-74
2022/11/16 04:59:08;;;;;;;125.72;74.68;;;;;;;;;;6196135;28;20441;-74
2022/11/16 05:02:08;;;;;;;126.43;74.87;;;;;;;;;;6197406;28;20077;-75
2022/11/16 05:05:08;;;;;;;128.93;79.90;;;;;;;;;;6194533;28;20050;-75
2022/11/16 05:08:09;;;;;;;120.13;72.47;;;;;;;;;;6195686;28;20014;-75
2022/11/16 05:11:09;;;;;;;119.43;75.53;;;;;;;;;;6197028;28;20034;-75
2022/11/16 05:14:09;;;;;;;118.60;71.90;;;;;;;;;;6195649;28;20054;-75
2022/11/16 05:17:10;;;;;;;113.00;70.17;;;;;;;;;;6196408;28;20030;-75
2022/11/16 05:26:48;;;;;;;113.43;72.07;;;;;;;;;;6199914;28;20113;-75
2022/11/16 05:29:49;;;;;;;116.55;70.07;;;;;;;;;;6197695;28;20079;-75
2022/11/16 05:32:49;;;;;;;115.68;70.50;;;;;;;;;;6184016;28;20018;-75
2022/11/16 05:35:50;;;;;;;124.10;72.40;;;;;;;;;;6183987;28;20424;-75
2022/11/16 05:38:50;;;;;;;133.73;73.07;;;;;;;;;;6201519;28;20474;-75
2022/11/16 05:41:50;;;;;;;117.80;73.47;;;;;;;;;;6201391;28;20065;-75
2022/11/16 05:44:51;;;;;;;125.77;75.37;;;;;;;;;;6200113;28;20040;-75
2022/11/16 05:47:51;;;;;;;107.25;67.80;;;;;;;;;;6199111;28;20026;-75
2022/11/16 05:50:56;;;;;;;112.82;70.38;;;;;;;;;;6199895;28;20273;-75
2022/11/16 05:53:56;;;;;;;107.57;65.80;;;;;;;;;;6199659;28;20069;-75
2022/11/16 05:56:58;;;;;;;108.63;69.00;;;;;;;;;;6199440;28;20406;-75
2022/11/16 05:59:58;;;;;;;113.03;68.70;;;;;;;;;;6199258;28;20058;-75
2022/11/16 06:02:58;;;;;;;113.93;67.22;;;;;;;;;;6183609;28;20461;-75
2022/11/16 06:05:58;;;;;;;110.88;68.35;;;;;;;;;;6198057;28;20042;-75
2022/11/16 06:08:58;;;;;;;113.03;64.70;;;;;;;;;;6195326;28;20026;-75
2022/11/16 06:11:58;;;;;;;116.53;65.22;;;;;;;;;;6179539;28;20014;-75
2022/11/16 06:14:59;;;;;;;105.03;62.23;;;;;;;;;;6197654;28;20039;-75
2022/11/16 06:17:59;;;;;;;103.38;63.55;;;;;;;;;;6177491;28;20022;-75
2022/11/16 06:20:59;;;;;;;115.40;67.88;;;;;;;;;;6179451;28;20627;-75
2022/11/16 06:24:01;;;;;;;124.43;77.90;;;;;;;;;;6180704;28;20034;-74
2022/11/16 06:27:01;;;;;;;138.38;81.82;;;;;;;;;;6200146;28;20022;-75
2022/11/16 06:30:01;;;;;;;114.85;69.95;;;;;;;;;;6200244;28;20105;-74
2022/11/16 06:33:02;;;;;;;108.47;66.70;;;;;;;;;;6200044;28;20058;-74
2022/11/16 06:36:02;;;;;;;112.35;71.50;;;;;;;;;;6197812;28;20019;-74
2022/11/16 06:39:02;;;;;;;114.07;68.17;;;;;;;;;;6193992;28;20077;-74
2022/11/16 06:42:02;;;;;;;113.53;67.53;;;;;;;;;;6195562;28;20057;-74
2022/11/16 06:45:03;;;;;;;113.22;69.32;;;;;;;;;;6196731;28;20269;-74
2022/11/16 06:48:03;;;;;;;110.03;68.33;;;;;;;;;;6194709;28;20039;-74
2022/11/16 06:51:03;;;;;;;116.95;70.75;;;;;;;;;;6198823;28;20014;-74
2022/11/16 06:54:04;;;;;;;119.40;70.70;;;;;;;;;;6178600;28;20045;-74
2022/11/16 06:57:04;;;;;;;115.07;68.07;;;;;;;;;;6196838;28;20026;-74
2022/11/16 07:00:05;;;;;;;121.40;72.60;;;;;;;;;;6198010;28;20505;-74
2022/11/16 07:03:05;;;;;;;118.73;69.90;;;;;;;;;;6198518;28;20018;-74
2022/11/16 07:06:09;;;;;;;120.17;71.97;;;;;;;;;;6197586;28;20110;-74
2022/11/16 07:09:09;;;;;;;127.05;74.40;;;;;;;;;;6198778;28;20077;-74
2022/11/16 07:12:09;;;;;;;115.22;70.05;;;;;;;;;;6181579;28;20117;-74
2022/11/16 07:15:10;;;;;;;117.95;71.43;;;;;;;;;;6196525;28;20010;-74
2022/11/16 07:18:10;;;;;;;120.40;72.80;;;;;;;;;;6196362;28;20091;-74
2022/11/16 07:21:11;;;;;;;122.25;74.05;;;;;;;;;;6197720;28;20030;-74
2022/11/16 07:24:12;;;;;;;131.75;78.18;;;;;;;;;;6197819;28;20281;-74
2022/11/16 07:27:12;;;;;;;127.22;78.57;;;;;;;;;;6196491;28;20021;-74
2022/11/16 07:30:12;;;;;;;140.97;86.33;;;;;;;;;;6198678;28;20538;-74
2022/11/16 07:33:12;;;;;;;133.23;77.13;;;;;;;;;;6199420;28;20026;-74
2022/11/16 07:36:13;;;;;;;133.70;78.57;;;;;;;;;;6199639;28;20359;-75
2022/11/16 07:39:13;;;;;;;137.37;78.37;;;;;;;;;;6198252;28;20030;-75
2022/11/16 07:42:13;;;;;;;142.40;81.33;;;;;;;;;;6198134;28;20076;-75
2022/11/16 07:45:14;;;;;;;149.23;84.55;;;;;;;;;;6196131;28;20104;-75
2022/11/16 07:48:14;;;;;;;142.00;80.63;;;;;;;;;;6195310;28;20019;-74
2022/11/16 07:51:15;;;;;;;139.77;82.20;;;;;;;;;;6196889;28;20014;-75
2022/11/16 07:54:15;;;;;;;155.00;88.75;;;;;;;;;;6197058;28;20088;-75
2022/11/16 07:57:15;;;;;;;144.27;80.43;;;;;;;;;;6196545;28;20030;-74
2022/11/16 08:00:16;;;;;;;154.80;86.87;;;;;;;;;;6196534;28;20038;-74
2022/11/16 08:03:16;;;;;;;147.45;84.35;;;;;;;;;;6180081;28;20030;-75
2022/11/16 08:06:18;;;;;;;151.63;86.07;;;;;;;;;;6196018;28;20038;-74
2022/11/16 08:09:19;;;;;;;143.88;86.10;;;;;;;;;;6196553;28;20022;-74
2022/11/16 08:12:19;;;;;;;146.32;86.63;;;;;;;;;;6197597;28;20028;-74
2022/11/16 08:15:19;;;;;;;158.85;86.82;;;;;;;;;;6192518;28;20022;-75
2022/11/16 08:18:19;;;;;;;155.98;89.18;;;;;;;;;;6194891;28;20072;-74
2022/11/16 08:21:19;;;;;;;146.70;87.13;;;;;;;;;;6197827;28;20023;-74
2022/11/16 08:24:20;;;;;;;148.27;82.60;;;;;;;;;;6196491;28;20033;-74
2022/11/16 08:27:20;;;;;;;146.23;84.35;;;;;;;;;;6196600;28;20018;-75
2022/11/16 08:30:20;;;;;;;151.98;85.50;;;;;;;;;;6180459;28;20454;-73
2022/11/16 08:33:22;;;;;;;157.10;88.22;;;;;;;;;;6179516;28;20294;-74
2022/11/16 08:36:22;;;;;;;;;;;;;;;;;;6195277;28;20307;-74
2022/11/16 08:39:22;;;;;;;161.27;87.40;;;;;;;;;;6196243;28;19913;-74
2022/11/16 08:42:22;;;;;;;149.40;87.37;;;;;;;;;;6197067;28;20022;-74
2022/11/16 08:45:23;;;;;;;206.10;106.40;;;;;;;;;;6194959;28;20066;-73
2022/11/16 08:48:23;;;;;;;174.60;95.37;;;;;;;;;;6196153;28;20021;-75
2022/11/16 08:51:23;;;;;;;145.68;78.65;;;;;;;;;;6196686;28;20477;-74
2022/11/16 08:54:24;;;;;;;141.47;84.67;;;;;;;;;;6177737;28;20033;-73
2022/11/16 08:57:24;;;;;;;145.55;75.80;;;;;;;;;;6196007;28;20026;-73
2022/11/16 09:00:24;;;;;;;126.20;72.05;;;;;;;;;;6182336;28;20378;-74
2022/11/16 09:03:26;;;;;;;136.45;76.55;;;;;;;;;;6199407;28;20037;-74
2022/11/16 09:06:26;;;;;;;154.90;81.50;;;;;;;;;;6199316;28;20038;-74
2022/11/16 09:09:26;;;;;;;122.57;72.73;;;;;;;;;;6199714;28;20018;-74
2022/11/16 09:12:27;;;;;;;127.93;69.30;;;;;;;;;;6200498;28;20470;-74
2022/11/16 09:15:27;;;;;;;115.90;64.67;;;;;;;;;;6182070;28;20021;-74
2022/11/16 09:18:28;;;;;;;114.72;62.92;;;;;;;;;;6200628;28;20363;-73
2022/11/16 09:21:29;;;;;;;120.53;68.20;;;;;;;;;;6201035;28;20545;-77
2022/11/16 09:24:29;;;;;;;116.40;66.57;;;;;;;;;;6201947;28;20169;-73
2022/11/16 09:27:29;;;;;;;108.40;64.77;;;;;;;;;;6196879;28;20026;-73
2022/11/16 09:30:30;;;;;;;125.55;67.65;;;;;;;;;;6195320;28;20105;-73
2022/11/16 09:33:31;;;;;;;115.47;64.50;;;;;;;;;;6197740;28;20069;-72
2022/11/16 09:36:31;;;;;;;111.17;63.20;;;;;;;;;;6181571;28;20031;-73
2022/11/16 09:39:33;;;;;;;106.70;61.33;;;;;;;;;;6199179;28;20438;-72
2022/11/16 09:42:58;;;;;;;98.95;58.88;;;;;;;;;;6197681;28;20479;-73
2022/11/16 09:46:10;;;;;;;103.25;59.78;;;;;;;;;;6198813;28;20422;-72
2022/11/16 09:49:12;;;;;;;102.10;54.75;;;;;;;;;;6194001;28;20007;-73
2022/11/16 09:52:20;;;;;;;97.60;56.45;;;;;;;;;;6201955;28;20109;-72
2022/11/16 09:55:29;;;;;;;105.40;58.75;;;;;;;;;;6200364;28;20104;-72
2022/11/16 09:58:48;;;;;;;104.10;56.15;;;;;;;;;;6198034;28;20033;-73
2022/11/16 10:01:54;;;;;;;87.55;50.42;;;;;;;;;;6193207;28;20022;-73
2022/11/16 10:05:23;;;;;;;92.70;54.60;;;;;;;;;;6197354;28;20047;-73
2022/11/16 10:08:42;;;;;;;97.10;54.03;;;;;;;;;;6187284;28;20388;-73
2022/11/16 10:11:50;;;;;;;99.05;53.80;;;;;;;;;;6192341;28;20110;-73
2022/11/16 10:15:06;;;;;;;95.38;53.72;;;;;;;;;;6199529;28;20018;-72
2022/11/16 10:18:26;;;;;;;109.38;54.22;;;;;;;;;;6198138;28;20483;-73
2022/11/16 10:21:43;;;;;;;102.07;55.17;;;;;;;;;;6195442;28;20416;-72
2022/11/16 10:24:52;;;;;;;101.47;54.45;;;;;;;;;;6199645;28;20706;-73
2022/11/16 10:28:08;;;;;;;102.95;53.13;;;;;;;;;;6196071;28;20014;-72
2022/11/16 10:31:21;;;;;;;99.63;50.80;;;;;;;;;;6199598;28;20491;-73
2022/11/16 10:34:23;;;;;;;113.22;54.60;;;;;;;;;;6197447;28;20026;-72
2022/11/16 10:37:28;;;;;;;107.10;52.50;;;;;;;;;;6194786;28;20033;-72
2022/11/16 10:40:29;;;;;;;114.53;58.47;;;;;;;;;;6196729;28;20406;-72
2022/11/16 10:43:31;;;;;;;104.47;49.55;;;;;;;;;;6199475;28;20034;-72
2022/11/16 10:46:39;;;;;;;96.70;51.67;;;;;;;;;;6197905;28;20514;-72
2022/11/16 10:49:45;;;;;;;97.93;51.55;;;;;;;;;;6196394;28;20536;-72
2022/11/16 10:52:45;;;;;;;97.78;50.22;;;;;;;;;;6197783;28;20022;-72
2022/11/16 10:55:50;;;;;;;100.82;51.13;;;;;;;;;;6198357;28;20145;-71
2022/11/16 10:58:57;;;;;;;111.93;53.50;;;;;;;;;;6197293;28;20752;-72
2022/11/16 11:01:58;;;;;;;109.55;55.60;;;;;;;;;;6196689;28;22047;-71
2022/11/16 11:05:16;;;;;;;91.60;43.58;;;;;;;;;;6196180;28;20045;-71
2022/11/16 11:08:29;;;;;;;96.57;48.58;;;;;;;;;;6193414;28;20273;-71
2022/11/16 11:15:02;;;;;;;89.60;39.60;;;;;;;;;;6196293;28;20510;-71
2022/11/16 11:18:16;;;;;;;109.60;42.00;;;;;;;;;;6194518;28;20032;-70
2022/11/16 11:21:19;;;;;;;84.13;36.03;;;;;;;;;;6193992;28;20077;-71
2022/11/16 11:24:20;;;;;;;87.78;35.03;;;;;;;;;;6179984;28;20026;-71
2022/11/16 11:27:26;;;;;;;106.80;40.03;;;;;;;;;;6198041;28;20026;-72
2022/11/16 11:30:27;;;;;;;88.82;36.75;;;;;;;;;;6191987;28;20546;-71
2022/11/16 11:33:29;;;;;;;94.47;37.03;;;;;;;;;;6197208;28;20033;-71
2022/11/16 11:36:37;;;;;;;145.93;44.85;;;;;;;;;;6197655;28;20505;-71
2022/11/16 11:39:37;;;;;;;105.05;41.35;;;;;;;;;;6178647;28;20049;-71
2022/11/16 11:42:40;;;;;;;135.20;44.38;;;;;;;;;;6197137;28;20048;-71
2022/11/16 11:45:45;;;;;;;131.25;46.78;;;;;;;;;;6178401;28;20030;-71
2022/11/16 11:48:53;;;;;;;198.73;52.03;;;;;;;;;;6194026;28;20022;-71
2022/11/16 11:51:55;;;;;;;170.48;51.35;;;;;;;;;;6196861;28;20022;-72
2022/11/16 11:54:55;;;;;;;179.77;48.25;;;;;;;;;;6197356;28;20069;-71
2022/11/16 11:57:56;;;;;;;173.38;48.00;;;;;;;;;;6194920;28;20034;-71
2022/11/16 12:01:17;;;;;;;186.70;53.45;;;;;;;;;;6196999;28;20027;-71
2022/11/16 12:04:33;;;;;;;219.55;62.30;;;;;;;;;;6155750;28;20483;-71
2022/11/16 12:07:36;;;;;;;173.93;54.85;;;;;;;;;;6196325;28;20509;-71
2022/11/16 12:10:47;;;;;;;112.18;42.10;;;;;;;;;;6178588;28;20029;-72
2022/11/16 12:13:59;;;;;;;118.93;44.00;;;;;;;;;;6197028;28;20022;-72
2022/11/16 12:16:59;;;;;;;102.18;33.08;;;;;;;;;;6196087;28;20023;-72
2022/11/16 12:20:04;;;;;;;90.27;31.97;;;;;;;;;;6197043;28;20037;-72
2022/11/16 12:23:30;;;;;;;82.35;31.95;;;;;;;;;;6195847;28;20026;-72
2022/11/16 12:27:02;;;;;;;65.78;29.13;;;;;;;;;;6196110;28;20105;-72
2022/11/16 12:30:08;;;;;;;69.90;28.77;;;;;;;;;;6162264;28;20030;-71
2022/11/16 12:33:27;;;;;;;57.88;23.52;;;;;;;;;;6196074;28;20057;-71
2022/11/16 12:36:45;;;;;;;59.42;27.80;;;;;;;;;;6196239;28;20505;-72
2022/11/16 12:40:04;;;;;;;49.97;23.63;;;;;;;;;;6191486;28;20398;-73
2022/11/16 12:43:27;;;;;;;51.58;24.58;;;;;;;;;;6191609;28;20433;-73
2022/11/16 12:46:27;;;;;;;42.45;20.63;;;;;;;;;;6192464;28;20368;-73
2022/11/16 12:49:47;;;;;;;57.47;24.20;;;;;;;;;;6191592;28;20387;-71
2022/11/16 12:53:05;;;;;;;43.97;21.42;;;;;;;;;;6168459;28;20023;-72
2022/11/16 12:56:24;;;;;;;36.28;18.13;;;;;;;;;;6194496;28;20058;-71
2022/11/16 12:59:24;;;;;;;22.52;13.38;;;;;;;;;;6194458;28;20025;-71
2022/11/16 13:02:28;;;;;;;17.85;10.95;;;;;;;;;;6195476;28;20030;-71
2022/11/16 13:05:43;;;;;;;16.77;9.80;;;;;;;;;;6195711;28;20069;-72
2022/11/16 13:08:47;;;;;;;13.77;8.57;;;;;;;;;;6193522;28;20021;-71
2022/11/16 13:11:51;;;;;;;14.05;8.45;;;;;;;;;;6194341;28;20494;-71
2022/11/16 13:14:53;;;;;;;17.20;9.60;;;;;;;;;;6193568;28;20034;-71
2022/11/16 13:17:58;;;;;;;12.55;8.65;;;;;;;;;;6194557;28;20117;-71
2022/11/16 13:21:05;;;;;;;14.63;9.25;;;;;;;;;;6195394;28;20098;-72
2022/11/16 13:24:24;;;;;;;15.48;9.15;;;;;;;;;;6195581;28;20037;-72
2022/11/16 13:27:40;;;;;;;11.23;7.03;;;;;;;;;;6176290;28;20038;-71
2022/11/16 13:30:49;;;;;;;11.88;7.03;;;;;;;;;;6192899;28;20406;-71
2022/11/16 13:33:52;;;;;;;12.25;7.32;;;;;;;;;;6194557;28;20034;-71
2022/11/16 13:36:52;;;;;;;13.70;7.80;;;;;;;;;;6192710;28;20022;-71
2022/11/16 13:39:53;;;;;;;12.77;6.63;;;;;;;;;;6175992;28;20026;-71
2022/11/16 13:42:59;;;;;;;11.33;6.00;;;;;;;;;;6194919;28;20034;-72
2022/11/16 13:46:00;;;;;;;12.77;6.55;;;;;;;;;;6198727;28;20019;-71
2022/11/16 13:49:00;;;;;;;12.35;6.75;;;;;;;;;;6199740;28;20046;-71
2022/11/16 13:52:07;;;;;;;9.90;4.70;;;;;;;;;;6198825;28;20121;-71
2022/11/16 13:55:15;;;;;;;7.25;4.25;;;;;;;;;;6193589;28;20052;-71
2022/11/16 13:58:19;;;;;;;7.53;4.35;;;;;;;;;;6193804;28;20023;-71
2022/11/16 14:01:19;;;;;;;9.85;5.20;;;;;;;;;;6198130;28;20102;-71
2022/11/16 14:04:49;;;;;;;10.93;5.35;;;;;;;;;;6199073;28;20022;-71
2022/11/16 14:07:50;;;;;;;11.55;6.40;;;;;;;;;;6185671;28;20503;-71
2022/11/16 14:10:51;;;;;;;8.52;5.13;;;;;;;;;;6198254;28;20022;-71
2022/11/16 14:13:51;;;;;;;13.73;5.35;;;;;;;;;;6197483;28;20030;-71
2022/11/16 14:16:51;;;;;;;9.70;5.73;;;;;;;;;;6199014;28;20022;-71
2022/11/16 14:19:53;;;;;;;8.77;4.97;;;;;;;;;;6197119;28;20300;-71
2022/11/16 14:22:54;;;;;;;;;;;;;;;;;;6197353;28;20018;-71
2022/11/16 14:26:12;;;;;;;9.25;5.68;;;;;;;;;;6198462;28;19917;-71
2022/11/16 14:29:19;;;;;;;11.70;6.13;;;;;;;;;;6196638;28;20028;-71
2022/11/16 14:32:21;;;;;;;14.68;8.13;;;;;;;;;;6181231;28;20074;-71
2022/11/16 14:35:33;;;;;;;21.52;10.48;;;;;;;;;;6199267;28;20022;-71
2022/11/16 14:38:33;;;;;;;14.57;7.70;;;;;;;;;;6198372;28;20038;-72
2022/11/16 14:41:33;;;;;;;16.08;7.35;;;;;;;;;;6197209;28;20011;-71
2022/11/16 14:44:36;;;;;;;12.85;7.13;;;;;;;;;;6178602;28;20018;-72
2022/11/16 14:47:37;;;;;;;15.55;7.10;;;;;;;;;;6196946;28;20017;-72
2022/11/16 14:50:37;;;;;;;14.23;6.70;;;;;;;;;;6197170;28;20022;-72
2022/11/16 14:53:39;;;;;;;11.37;5.77;;;;;;;;;;6197251;28;20394;-72
2022/11/16 14:56:39;;;;;;;;;;;;;;;;;;6197391;28;20413;-72
2022/11/16 14:59:39;;;;;;;10.07;5.30;;;;;;;;;;6195494;28;20302;-71
2022/11/16 15:02:39;;;;;;;12.35;6.65;;;;;;;;;;6194218;28;20101;-71
2022/11/16 15:05:40;;;;;;;15.80;8.47;;;;;;;;;;6194205;28;20284;-71
2022/11/16 15:08:48;;;;;;;12.65;6.43;;;;;;;;;;6194551;28;20303;-71
2022/11/16 15:15:11;;;;;;;16.50;8.50;;;;;;;;;;6194922;28;20030;-71
2022/11/16 15:18:13;;;;;;;15.35;9.25;;;;;;;;;;6192930;28;20018;-70
2022/11/16 15:21:21;;;;;;;17.10;9.57;;;;;;;;;;6193879;28;20026;-71
2022/11/16 15:24:22;;;;;;;16.25;9.57;;;;;;;;;;6191457;28;20253;-72
2022/11/16 15:27:36;;;;;;;20.55;10.45;;;;;;;;;;6176432;28;20525;-72
2022/11/16 15:30:37;;;;;;;19.38;10.57;;;;;;;;;;6193780;28;20007;-72
2022/11/16 15:33:39;;;;;;;17.17;8.90;;;;;;;;;;6194213;28;20034;-72
2022/11/16 15:36:40;;;;;;;18.10;9.88;;;;;;;;;;6197828;28;20522;-71
2022/11/16 15:39:41;;;;;;;19.17;10.85;;;;;;;;;;6178859;28;20038;-72
2022/11/16 15:42:42;;;;;;;23.48;14.40;;;;;;;;;;6196633;28;20022;-72
2022/11/16 15:45:42;;;;;;;18.10;11.37;;;;;;;;;;6197496;28;20029;-72
2022/11/16 15:48:43;;;;;;;20.23;11.13;;;;;;;;;;6196239;28;20467;-72
2022/11/16 15:51:43;;;;;;;19.70;11.80;;;;;;;;;;6196824;28;20094;-71
2022/11/16 15:58:12;;;;;;;15.32;9.20;;;;;;;;;;6195930;28;20026;-70
2022/11/16 16:01:13;;;;;;;17.75;9.25;;;;;;;;;;6196485;28;20058;-70
2022/11/16 16:04:14;;;;;;;17.30;9.73;;;;;;;;;;6195768;28;20025;-71
2022/11/16 16:07:33;;;;;;;20.52;9.70;;;;;;;;;;6196753;28;20045;-72
2022/11/16 16:10:34;;;;;;;18.17;10.10;;;;;;;;;;6196375;28;20097;-72
2022/11/16 16:13:35;;;;;;;22.77;11.15;;;;;;;;;;6196220;28;20026;-73
2022/11/16 16:16:36;;;;;;;19.38;10.63;;;;;;;;;;6196809;28;20382;-73
2022/11/16 16:19:39;;;;;;;21.25;12.85;;;;;;;;;;6195125;28;20011;-73
2022/11/16 16:22:39;;;;;;;18.23;11.80;;;;;;;;;;6195736;28;20026;-73
2022/11/16 16:25:39;;;;;;;18.60;10.33;;;;;;;;;;6195857;28;20029;-72
2022/11/16 16:28:40;;;;;;;17.86;10.02;;;;;;;;;;6196823;28;20735;-73
2022/11/16 16:31:41;;;;;;;22.58;13.35;;;;;;;;;;6192898;28;20970;-72
2022/11/16 16:34:42;;;;;;;19.38;11.07;;;;;;;;;;6194674;28;20026;-73
2022/11/16 16:37:42;;;;;;;25.73;15.17;;;;;;;;;;6195230;28;20057;-72
2022/11/16 16:40:42;;;;;;;21.30;12.07;;;;;;;;;;6195938;28;20030;-72
2022/11/16 16:43:43;;;;;;;22.48;12.75;;;;;;;;;;6195217;28;20709;-72
2022/11/16 16:46:43;;;;;;;38.33;18.48;;;;;;;;;;6195321;28;20757;-72
2022/11/16 16:49:43;;;;;;;28.34;13.70;;;;;;;;;;6195788;28;20253;-72
2022/11/16 16:52:43;;;;;;;31.24;15.28;;;;;;;;;;6194207;28;20029;-72
2022/11/16 16:55:45;;;;;;;29.02;15.85;;;;;;;;;;6190346;28;20486;-72
2022/11/16 16:58:46;;;;;;;28.55;17.25;;;;;;;;;;6195483;28;20022;-72
2022/11/16 17:01:46;;;;;;;37.42;19.45;;;;;;;;;;6195424;28;20035;-73
2022/11/16 17:04:47;;;;;;;24.33;15.10;;;;;;;;;;6194755;28;20050;-73
2022/11/16 17:07:47;;;;;;;23.93;15.67;;;;;;;;;;6193541;28;20049;-73
2022/11/16 17:10:48;;;;;;;21.67;12.55;;;;;;;;;;6191173;28;20053;-73
2022/11/16 17:13:48;;;;;;;17.70;10.18;;;;;;;;;;6192242;28;20052;-74
2022/11/16 17:16:49;;;;;;;20.10;12.13;;;;;;;;;;6193326;28;20471;-72
2022/11/16 17:19:50;;;;;;;18.53;10.10;;;;;;;;;;6197000;28;20028;-73
2022/11/16 17:22:50;;;;;;;22.10;12.57;;;;;;;;;;6197694;28;20080;-73
2022/11/16 17:25:50;;;;;;;24.33;13.30;;;;;;;;;;6198085;28;20006;-73
2022/11/16 17:28:55;;;;;;;21.90;13.60;;;;;;;;;;6193310;28;20148;-74
2022/11/16 17:31:55;;;;;;;24.55;12.60;;;;;;;;;;6197999;28;20032;-73
2022/11/16 17:34:55;;;;;;;21.73;12.38;;;;;;;;;;6197075;28;20022;-73
2022/11/16 17:37:57;;;;;;;20.67;10.57;;;;;;;;;;6197561;28;20105;-73
2022/11/16 17:41:14;;;;;;;19.35;11.15;;;;;;;;;;6181434;28;20469;-74
2022/11/16 17:44:16;;;;;;;13.63;8.38;;;;;;;;;;6198397;28;20479;-73
2022/11/16 17:47:16;;;;;;;18.17;10.45;;;;;;;;;;6198705;28;20474;-73
2022/11/16 17:50:16;;;;;;;19.58;12.65;;;;;;;;;;6199194;28;20494;-73
2022/11/16 17:53:17;;;;;;;18.85;10.65;;;;;;;;;;6182750;28;20029;-73
2022/11/16 17:56:18;;;;;;;17.55;10.75;;;;;;;;;;6198789;28;20438;-73
2022/11/16 17:59:18;;;;;;;16.77;8.88;;;;;;;;;;6198083;28;20022;-73
2022/11/16 18:02:18;;;;;;;14.07;8.35;;;;;;;;;;6197194;28;20454;-73
2022/11/16 18:05:19;;;;;;;19.75;9.43;;;;;;;;;;6197267;28;20050;-73
2022/11/16 18:08:19;;;;;;;12.90;5.37;;;;;;;;;;6197720;28;20034;-73
2022/11/16 18:11:26;;;;;;;12.33;6.73;;;;;;;;;;6198427;28;20018;-73
2022/11/16 18:14:26;;;;;;;9.10;5.30;;;;;;;;;;6199672;28;20101;-73
2022/11/16 18:17:26;;;;;;;12.43;6.43;;;;;;;;;;6181437;28;20023;-73
2022/11/16 18:20:28;;;;;;;11.18;6.90;;;;;;;;;;6199340;28;20022;-73
2022/11/16 18:23:28;;;;;;;14.05;6.85;;;;;;;;;;6198556;28;20022;-73
2022/11/16 18:26:28;;;;;;;15.60;8.48;;;;;;;;;;6199354;28;20042;-73
2022/11/16 18:29:28;;;;;;;14.60;6.90;;;;;;;;;;6196656;28;20336;-73
2022/11/16 18:32:29;;;;;;;12.83;5.07;;;;;;;;;;6179069;28;20105;-72